Time;durP1;ratioP1;P1;durP2;ratioP2;P2;SDS_P1;SDS_P2;PMS_P1;PMS_P2;Temp;Humidity;BMP_temperature;BMP_pressure;BME280_temperature;BME280_humidity;BME280_pressure;Samples;Min_cycle;Max_cycle;Signal;HPM_P1;HPM_P2
2020/12/09 00:00:53;;;;;;;44.83;19.13;;;3.30;81.80;;;;;;5040018;28;20035;-70
2020/12/09 00:03:19;;;;;;;45.83;19.00;;;3.30;81.80;;;;;;5059377;28;20045;-70
2020/12/09 00:05:45;;;;;;;47.08;19.92;;;3.30;81.80;;;;;;5066472;28;20029;-69
2020/12/09 00:08:11;;;;;;;47.25;19.63;;;3.30;81.90;;;;;;5061114;28;20113;-70
2020/12/09 00:10:37;;;;;;;49.83;19.80;;;3.30;81.90;;;;;;5044460;28;20029;-69
2020/12/09 00:13:03;;;;;;;50.15;19.95;;;3.30;81.90;;;;;;5050075;28;20039;-69
2020/12/09 00:15:29;;;;;;;44.88;18.75;;;3.30;81.80;;;;;;5049214;28;20024;-68
2020/12/09 00:17:55;;;;;;;45.70;19.05;;;3.30;81.70;;;;;;5060917;28;20419;-69
2020/12/09 00:20:20;;;;;;;46.28;19.38;;;3.30;81.70;;;;;;5056229;28;20496;-70
2020/12/09 00:22:46;;;;;;;46.97;19.67;;;3.30;82.50;;;;;;5064258;28;20052;-66
2020/12/09 00:25:12;;;;;;;47.70;20.48;;;3.30;81.70;;;;;;5064452;28;20507;-70
2020/12/09 00:27:37;;;;;;;43.78;18.83;;;3.30;81.70;;;;;;5069707;28;20033;-69
2020/12/09 00:30:07;;;;;;;41.85;18.15;;;3.30;81.80;;;;;;5051223;28;20441;-70
2020/12/09 00:32:36;;;;;;;46.33;19.25;;;3.20;81.90;;;;;;5069326;28;20029;-68
2020/12/09 00:35:06;;;;;;;45.55;20.30;;;3.30;82.10;;;;;;5065922;28;20133;-69
2020/12/09 00:37:34;;;;;;;45.55;19.80;;;3.20;82.00;;;;;;5066723;28;20090;-70
2020/12/09 00:39:59;;;;;;;48.13;20.55;;;3.20;82.00;;;;;;5059029;28;20462;-70
2020/12/09 00:42:25;;;;;;;44.42;19.42;;;3.20;81.90;;;;;;5046418;28;20132;-70
2020/12/09 00:44:50;;;;;;;45.35;19.65;;;3.20;82.00;;;;;;5054224;28;20029;-70
2020/12/09 00:47:16;;;;;;;45.90;19.65;;;3.20;82.00;;;;;;5046867;28;20036;-70
2020/12/09 00:49:58;;;;;;;49.85;20.58;;;3.20;82.00;;;;;;5051966;28;20063;-70
2020/12/09 00:52:24;;;;;;;52.72;20.55;;;3.20;82.00;;;;;;5065066;28;20063;-70
2020/12/09 00:54:50;;;;;;;48.70;20.55;;;3.20;82.00;;;;;;5066380;28;20032;-69
2020/12/09 00:57:15;;;;;;;48.78;20.83;;;3.30;82.10;;;;;;5063126;28;20511;-69
2020/12/09 00:59:42;;;;;;;52.33;21.15;;;3.20;82.10;;;;;;5061834;28;20115;-70
2020/12/09 01:02:08;;;;;;;50.10;20.38;;;3.20;82.10;;;;;;5058076;28;20443;-70
2020/12/09 01:04:33;;;;;;;45.58;20.25;;;3.30;82.10;;;;;;5068778;28;20032;-70
2020/12/09 01:06:59;;;;;;;50.22;20.80;;;3.30;82.10;;;;;;5065945;28;20036;-70
2020/12/09 01:09:25;;;;;;;50.80;20.98;;;3.30;82.20;;;;;;5065518;28;20066;-68
2020/12/09 01:11:50;;;;;;;51.10;21.02;;;3.30;82.20;;;;;;5047907;28;20144;-69
2020/12/09 01:14:16;;;;;;;51.00;21.35;;;3.30;82.10;;;;;;5052653;28;20040;-70
2020/12/09 01:16:41;;;;;;;52.45;21.88;;;3.30;82.10;;;;;;5071347;28;20036;-70
2020/12/09 01:19:07;;;;;;;49.97;21.48;;;3.30;82.10;;;;;;5063101;28;20059;-70
2020/12/09 01:21:32;;;;;;;49.90;21.35;;;3.40;82.10;;;;;;5064751;28;20040;-69
2020/12/09 01:23:58;;;;;;;50.75;20.40;;;3.40;82.10;;;;;;5066389;28;20064;-70
2020/12/09 01:26:24;;;;;;;51.53;21.35;;;3.40;82.00;;;;;;5060225;28;20067;-70
2020/12/09 01:28:50;;;;;;;48.53;21.02;;;3.40;82.00;;;;;;5045469;28;20278;-69
2020/12/09 01:31:20;;;;;;;48.38;20.58;;;3.50;82.00;;;;;;5065613;28;20041;-69
2020/12/09 01:33:46;;;;;;;50.60;21.35;;;3.50;81.90;;;;;;5068637;28;20044;-67
2020/12/09 01:36:12;;;;;;;44.08;19.40;;;3.50;81.80;;;;;;5064201;28;20091;-70
2020/12/09 01:38:37;;;;;;;45.65;20.65;;;3.50;81.80;;;;;;5067748;28;20106;-71
2020/12/09 01:41:03;;;;;;;45.17;19.58;;;3.50;81.80;;;;;;5047683;28;20028;-70
2020/12/09 01:43:28;;;;;;;43.55;19.20;;;3.50;81.90;;;;;;5062971;28;20396;-69
2020/12/09 01:45:54;;;;;;;47.25;20.60;;;3.50;81.80;;;;;;5070373;28;20075;-68
2020/12/09 01:48:20;;;;;;;47.72;20.70;;;3.50;81.80;;;;;;5048306;28;20044;-70
2020/12/09 01:50:45;;;;;;;43.60;18.85;;;3.50;81.80;;;;;;5063658;28;20041;-69
2020/12/09 01:53:11;;;;;;;47.05;20.63;;;3.50;81.90;;;;;;5065611;28;20381;-70
2020/12/09 01:55:37;;;;;;;43.00;18.27;;;3.50;81.90;;;;;;5059093;28;20078;-69
2020/12/09 01:58:03;;;;;;;48.90;20.67;;;3.50;81.80;;;;;;5062087;28;20116;-70
2020/12/09 02:00:28;;;;;;;49.40;20.73;;;3.50;82.70;;;;;;5062299;28;20031;-70
2020/12/09 02:02:54;;;;;;;48.47;21.08;;;3.50;81.80;;;;;;5065098;28;20033;-70
2020/12/09 02:05:19;;;;;;;51.05;21.38;;;3.50;81.90;;;;;;5064690;28;20470;-70
2020/12/09 02:07:45;;;;;;;50.65;22.50;;;3.50;81.80;;;;;;5060401;28;20085;-70
2020/12/09 02:10:14;;;;;;;51.60;22.23;;;3.50;81.80;;;;;;5064586;28;20029;-70
2020/12/09 02:12:40;;;;;;;51.00;21.38;;;3.50;81.90;;;;;;5058367;28;20051;-70
2020/12/09 02:15:07;;;;;;;49.80;20.58;;;3.50;81.80;;;;;;5052493;28;20025;-70
2020/12/09 02:17:32;;;;;;;49.80;21.70;;;3.50;81.90;;;;;;5067657;28;20119;-69
2020/12/09 02:19:58;;;;;;;46.53;21.42;;;3.50;82.00;;;;;;5061752;28;20143;-69
2020/12/09 02:22:24;;;;;;;48.72;21.58;;;3.50;82.10;;;;;;5044998;28;20459;-70
2020/12/09 02:24:49;;;;;;;51.92;21.98;;;3.50;82.10;;;;;;5068776;28;20032;-70
2020/12/09 02:27:15;;;;;;;48.40;21.92;;;3.40;82.10;;;;;;5048053;28;20123;-70
2020/12/09 02:29:41;;;;;;;49.53;21.02;;;3.50;82.20;;;;;;5054133;28;20124;-70
2020/12/09 02:32:06;;;;;;;45.60;21.00;;;3.50;82.30;;;;;;5056299;28;20523;-69
2020/12/09 02:34:32;;;;;;;45.60;20.42;;;3.50;82.30;;;;;;5065277;28;20025;-70
2020/12/09 02:36:58;;;;;;;52.67;21.70;;;3.50;82.40;;;;;;5054953;28;20052;-70
2020/12/09 02:39:32;;;;;;;47.13;21.02;;;3.60;82.50;;;;;;5058577;28;20116;-69
2020/12/09 02:41:57;;;;;;;50.80;21.73;;;3.50;82.40;;;;;;5047319;28;20115;-68
2020/12/09 02:44:23;;;;;;;46.92;21.40;;;3.50;82.30;;;;;;5060293;28;20646;-70
2020/12/09 02:46:49;;;;;;;50.50;21.55;;;3.60;82.40;;;;;;5065650;28;20033;-70
2020/12/09 02:49:14;;;;;;;46.55;20.70;;;3.60;82.40;;;;;;5063598;28;20316;-70
2020/12/09 02:51:40;;;;;;;44.45;20.20;;;3.60;82.30;;;;;;5063565;28;20571;-70
2020/12/09 02:54:05;;;;;;;45.13;19.75;;;3.60;82.30;;;;;;5058207;28;20036;-70
2020/12/09 02:56:31;;;;;;;46.80;21.33;;;3.60;82.30;;;;;;5042728;28;20036;-70
2020/12/09 02:58:57;;;;;;;46.70;21.55;;;3.70;82.30;;;;;;5064648;28;20115;-70
2020/12/09 03:01:22;;;;;;;48.10;21.35;;;3.70;82.30;;;;;;5066065;28;20514;-70
2020/12/09 03:03:48;;;;;;;45.92;21.17;;;3.70;82.30;;;;;;5061774;28;20036;-70
2020/12/09 03:06:13;;;;;;;44.83;21.00;;;3.70;82.20;;;;;;5065329;28;20037;-70
2020/12/09 03:08:39;;;;;;;43.30;20.27;;;3.70;82.20;;;;;;5045752;28;20059;-70
2020/12/09 03:11:05;;;;;;;44.97;20.55;;;3.70;82.20;;;;;;5043207;28;20120;-70
2020/12/09 03:13:30;;;;;;;41.72;19.63;;;3.70;82.50;;;;;;5059324;28;20063;-70
2020/12/09 03:15:56;;;;;;;43.20;20.73;;;3.70;82.10;;;;;;5061469;28;20048;-70
2020/12/09 03:18:21;;;;;;;45.50;20.70;;;3.70;82.10;;;;;;5053795;28;20025;-70
2020/12/09 03:20:47;;;;;;;42.22;19.75;;;3.70;82.10;;;;;;5037840;28;20048;-71
2020/12/09 03:23:12;;;;;;;48.38;22.27;;;3.70;82.10;;;;;;5063201;28;20029;-71
2020/12/09 03:25:38;;;;;;;45.33;20.85;;;3.70;82.20;;;;;;5065785;28;20028;-70
2020/12/09 03:28:04;;;;;;;42.28;20.35;;;3.70;82.20;;;;;;5062985;28;20086;-71
2020/12/09 03:30:29;;;;;;;45.50;20.65;;;3.70;82.30;;;;;;5063625;28;20395;-70
2020/12/09 03:32:55;;;;;;;42.88;18.98;;;3.60;82.30;;;;;;5056624;28;20048;-70
2020/12/09 03:35:20;;;;;;;41.63;19.48;;;3.60;82.30;;;;;;5062920;28;20032;-70
2020/12/09 03:37:46;;;;;;;45.70;20.10;;;3.60;82.50;;;;;;5059616;28;20044;-70
2020/12/09 03:40:11;;;;;;;38.85;18.40;;;3.70;82.60;;;;;;5046358;28;20507;-70
2020/12/09 03:42:37;;;;;;;41.97;20.10;;;3.70;82.60;;;;;;5059923;28;20033;-70
2020/12/09 03:45:03;;;;;;;43.65;20.45;;;3.70;82.60;;;;;;5051713;28;20141;-70
2020/12/09 03:47:29;;;;;;;51.45;24.52;;;3.70;82.60;;;;;;5055817;28;20037;-70
2020/12/09 03:49:54;;;;;;;46.67;21.88;;;3.80;82.60;;;;;;5065170;28;20372;-70
2020/12/09 03:52:20;;;;;;;46.42;21.83;;;3.80;82.50;;;;;;5059790;28;20160;-70
2020/12/09 03:54:46;;;;;;;44.55;21.05;;;3.80;82.30;;;;;;5064823;28;20527;-70
2020/12/09 03:57:11;;;;;;;44.92;20.77;;;3.80;82.20;;;;;;5064396;28;20047;-70
2020/12/09 03:59:37;;;;;;;43.47;21.08;;;3.80;82.20;;;;;;5060703;28;20028;-71
2020/12/09 04:02:02;;;;;;;41.85;19.98;;;3.80;82.20;;;;;;5041419;28;20033;-70
2020/12/09 04:04:28;;;;;;;44.55;20.13;;;3.90;82.30;;;;;;5046305;28;20043;-70
2020/12/09 04:06:53;;;;;;;43.47;19.52;;;3.90;82.20;;;;;;5059624;28;20029;-70
2020/12/09 04:09:19;;;;;;;42.97;20.05;;;3.90;82.10;;;;;;5046112;28;20518;-70
2020/12/09 04:11:45;;;;;;;40.67;19.95;;;3.90;82.10;;;;;;5061037;28;20095;-70
2020/12/09 04:14:10;;;;;;;43.20;20.83;;;3.90;82.00;;;;;;5056404;28;20124;-70
2020/12/09 04:16:36;;;;;;;39.95;20.33;;;3.90;81.90;;;;;;5060799;28;20052;-70
2020/12/09 04:19:02;;;;;;;42.08;20.17;;;3.90;81.80;;;;;;5041941;28;20171;-69
2020/12/09 04:21:27;;;;;;;46.17;21.13;;;3.90;82.60;;;;;;5066226;28;20044;-70
2020/12/09 04:23:53;;;;;;;44.33;20.55;;;3.90;81.70;;;;;;5059862;28;20037;-70
2020/12/09 04:26:18;;;;;;;43.58;21.52;;;3.90;82.60;;;;;;5065253;28;20039;-70
2020/12/09 04:28:44;;;;;;;45.00;21.00;;;3.90;81.80;;;;;;5055520;28;20514;-70
2020/12/09 04:31:10;;;;;;;46.78;22.33;;;3.90;81.90;;;;;;5045881;28;20225;-70
2020/12/09 04:33:37;;;;;;;42.63;20.35;;;3.90;81.80;;;;;;5065491;28;20040;-70
2020/12/09 04:36:04;;;;;;;40.75;20.27;;;3.80;81.80;;;;;;5058955;28;20765;-71
2020/12/09 04:38:30;;;;;;;45.17;20.67;;;3.80;81.80;;;;;;5057540;28;20126;-71
2020/12/09 04:40:55;;;;;;;43.53;20.42;;;3.80;81.80;;;;;;5062439;28;20102;-70
2020/12/09 04:43:21;;;;;;;41.30;20.27;;;3.80;82.00;;;;;;5059780;28;20250;-70
2020/12/09 04:45:47;;;;;;;45.45;20.30;;;3.80;82.80;;;;;;5058652;28;20561;-70
2020/12/09 04:48:14;;;;;;;41.78;19.92;;;3.80;82.10;;;;;;5040852;28;20033;-70
2020/12/09 04:51:17;;;;;;;40.38;19.77;;;3.80;82.20;;;;;;5060309;28;20021;-70
2020/12/09 04:53:43;;;;;;;44.40;20.10;;;3.80;82.20;;;;;;5051163;28;20611;-70
2020/12/09 04:56:09;;;;;;;41.47;19.80;;;3.80;82.00;;;;;;5065000;28;20115;-71
2020/12/09 04:58:42;;;;;;;40.10;19.27;;;3.90;82.10;;;;;;5053297;28;20120;-70
2020/12/09 05:01:10;;;;;;;41.40;20.15;;;3.90;82.10;;;;;;5053034;28;20040;-71
2020/12/09 05:03:45;;;;;;;41.30;20.67;;;3.90;82.00;;;;;;5055892;28;20040;-70
2020/12/09 05:06:14;;;;;;;39.50;19.85;;;3.90;82.00;;;;;;5056147;28;20415;-70
2020/12/09 05:09:03;;;;;;;44.13;20.85;;;3.90;82.00;;;;;;5059371;28;20037;-70
2020/12/09 05:11:28;;;;;;;46.53;21.70;;;3.90;81.90;;;;;;5052341;28;20446;-70
2020/12/09 05:13:56;;;;;;;43.13;21.13;;;3.90;81.80;;;;;;5063537;28;20507;-68
2020/12/09 05:16:23;;;;;;;42.25;20.80;;;3.90;81.80;;;;;;5067453;28;20403;-66
2020/12/09 05:19:00;;;;;;;45.25;20.05;;;3.90;81.80;;;;;;5050232;28;20048;-70
2020/12/09 05:21:26;;;;;;;42.10;20.60;;;3.90;82.00;;;;;;5055092;28;20128;-69
2020/12/09 05:23:57;;;;;;;40.70;20.13;;;3.90;82.00;;;;;;5058629;28;20060;-70
2020/12/09 05:26:28;;;;;;;43.25;20.83;;;3.90;82.00;;;;;;5051997;28;20090;-70
2020/12/09 05:29:14;;;;;;;40.22;20.05;;;3.90;82.10;;;;;;5061770;28;20653;-70
2020/12/09 05:31:49;;;;;;;45.33;20.98;;;3.90;82.10;;;;;;5061075;28;20496;-70
2020/12/09 05:34:33;;;;;;;42.40;19.98;;;3.80;82.00;;;;;;5068800;28;20520;-70
2020/12/09 05:37:01;;;;;;;37.42;19.42;;;3.90;82.10;;;;;;5050404;28;20037;-70
2020/12/09 05:39:28;;;;;;;41.50;19.25;;;3.80;82.00;;;;;;5052836;28;20623;-70
2020/12/09 05:41:54;;;;;;;37.00;18.27;;;3.80;82.00;;;;;;5062745;28;20400;-70
2020/12/09 05:44:21;;;;;;;41.03;20.77;;;3.80;82.10;;;;;;5061366;28;20391;-70
2020/12/09 05:47:04;;;;;;;39.13;19.48;;;3.80;82.20;;;;;;5064976;28;20354;-70
2020/12/09 05:49:36;;;;;;;38.90;19.02;;;3.80;82.40;;;;;;5066814;28;20048;-70
2020/12/09 05:52:15;;;;;;;37.78;19.45;;;3.80;82.30;;;;;;5052624;28;20119;-70
2020/12/09 05:54:46;;;;;;;38.35;19.27;;;3.80;82.40;;;;;;5053540;28;20523;-70
2020/12/09 05:57:14;;;;;;;41.00;19.52;;;3.80;82.40;;;;;;5070232;28;20518;-71
2020/12/09 05:59:45;;;;;;;41.15;20.25;;;3.80;82.50;;;;;;5057034;28;20277;-71
2020/12/09 06:02:21;;;;;;;37.13;18.58;;;3.80;82.60;;;;;;5068847;28;20058;-71
2020/12/09 06:04:59;;;;;;;36.92;17.80;;;3.80;82.70;;;;;;5058051;28;20040;-71
2020/12/09 06:07:27;;;;;;;38.95;19.02;;;3.80;83.60;;;;;;5061603;28;20120;-69
2020/12/09 06:10:03;;;;;;;38.92;18.83;;;3.80;82.60;;;;;;5070824;28;20036;-70
2020/12/09 06:12:28;;;;;;;36.85;17.75;;;3.90;82.80;;;;;;5053837;28;20171;-70
2020/12/09 06:15:13;;;;;;;40.13;20.08;;;3.90;82.60;;;;;;5065951;28;20112;-70
2020/12/09 06:17:39;;;;;;;39.38;19.50;;;3.90;82.60;;;;;;5067622;28;20063;-70
2020/12/09 06:20:04;;;;;;;38.90;19.98;;;3.90;82.50;;;;;;5059903;28;20044;-71
2020/12/09 06:22:33;;;;;;;47.38;20.98;;;4.00;82.50;;;;;;5065278;28;20373;-70
2020/12/09 06:25:07;;;;;;;36.90;18.70;;;4.00;82.50;;;;;;5032846;28;20025;-70
2020/12/09 06:27:34;;;;;;;38.70;18.92;;;4.00;82.40;;;;;;5040591;28;20036;-70
2020/12/09 06:30:00;;;;;;;52.75;25.90;;;4.00;83.20;;;;;;5067448;28;20029;-70
2020/12/09 06:32:25;;;;;;;41.10;20.52;;;4.00;82.30;;;;;;5068245;28;20458;-71
2020/12/09 06:35:05;;;;;;;38.75;18.75;;;4.00;82.30;;;;;;5065222;28;20041;-70
2020/12/09 06:37:31;;;;;;;38.20;19.13;;;4.10;82.30;;;;;;5058782;28;20113;-70
2020/12/09 06:40:14;;;;;;;41.40;19.70;;;4.10;82.20;;;;;;5066677;28;20060;-71
2020/12/09 06:42:40;;;;;;;39.50;18.40;;;4.10;82.10;;;;;;5065850;28;20033;-70
2020/12/09 06:45:06;;;;;;;38.85;18.83;;;4.10;82.10;;;;;;5051091;28;20040;-70
2020/12/09 06:47:32;;;;;;;38.35;18.80;;;4.10;82.10;;;;;;5067972;28;20024;-69
2020/12/09 06:50:00;;;;;;;40.55;19.50;;;4.10;82.10;;;;;;5070247;28;20028;-70
2020/12/09 06:52:29;;;;;;;40.15;19.38;;;4.10;82.10;;;;;;5047627;28;20507;-70
2020/12/09 06:54:55;;;;;;;42.25;20.83;;;4.10;82.00;;;;;;5064951;28;20559;-70
2020/12/09 06:57:33;;;;;;;42.00;19.95;;;4.10;82.10;;;;;;5070143;28;20111;-70
2020/12/09 07:00:20;;;;;;;40.03;20.10;;;4.10;82.10;;;;;;5063639;28;20052;-70
2020/12/09 07:02:51;;;;;;;46.22;22.20;;;4.10;82.10;;;;;;5066264;28;20031;-70
2020/12/09 07:05:18;;;;;;;41.10;19.83;;;4.10;82.00;;;;;;5067916;28;20024;-70
2020/12/09 07:07:59;;;;;;;41.70;20.30;;;4.10;82.00;;;;;;5057884;28;20045;-70
2020/12/09 07:10:27;;;;;;;39.90;20.48;;;4.10;82.00;;;;;;5049220;28;20181;-70
2020/12/09 07:13:09;;;;;;;42.65;20.48;;;4.10;82.00;;;;;;5052609;28;20496;-70
2020/12/09 07:15:49;;;;;;;40.47;19.98;;;4.10;82.00;;;;;;5050414;28;20046;-69
2020/12/09 07:18:15;;;;;;;42.67;20.40;;;4.00;82.10;;;;;;5066277;28;20407;-70
2020/12/09 07:20:41;;;;;;;41.05;20.67;;;4.00;82.00;;;;;;5061376;28;20093;-70
2020/12/09 07:23:08;;;;;;;48.47;22.42;;;4.00;82.00;;;;;;5063347;28;20530;-70
2020/12/09 07:25:35;;;;;;;42.20;19.40;;;4.00;82.10;;;;;;5069507;28;20035;-70
2020/12/09 07:28:01;;;;;;;42.13;21.20;;;4.00;82.10;;;;;;5057922;28;20029;-70
2020/12/09 07:30:27;;;;;;;40.80;20.55;;;3.90;82.20;;;;;;5067630;28;20518;-70
2020/12/09 07:32:54;;;;;;;41.15;19.92;;;3.90;82.30;;;;;;5049490;28;20040;-70
2020/12/09 07:35:20;;;;;;;44.20;21.05;;;3.90;82.30;;;;;;5057906;28;20025;-70
2020/12/09 07:37:50;;;;;;;41.72;20.85;;;3.90;82.50;;;;;;5064098;28;20064;-71
2020/12/09 07:40:29;;;;;;;43.03;20.67;;;3.90;82.50;;;;;;5052979;28;20029;-70
2020/12/09 07:43:13;;;;;;;40.78;20.00;;;3.90;82.60;;;;;;5064649;28;20048;-68
2020/12/09 07:45:43;;;;;;;50.08;23.55;;;3.90;82.80;;;;;;5058264;28;20052;-68
2020/12/09 07:48:14;;;;;;;39.58;18.92;;;3.90;82.60;;;;;;5059583;28;20032;-70
2020/12/09 07:50:47;;;;;;;51.42;22.52;;;3.90;82.60;;;;;;5049985;28;20122;-70
2020/12/09 07:53:13;;;;;;;49.75;23.25;;;4.00;82.60;;;;;;5068991;28;20163;-70
2020/12/09 07:55:39;;;;;;;43.67;21.48;;;4.00;82.70;;;;;;5058364;28;20119;-70
2020/12/09 07:58:10;;;;;;;39.28;20.08;;;4.00;82.70;;;;;;5060833;28;20033;-71
2020/12/09 08:00:38;;;;;;;41.28;20.10;;;4.00;82.70;;;;;;5057710;28;20024;-70
2020/12/09 08:03:04;;;;;;;40.85;20.48;;;4.10;82.70;;;;;;5061607;28;20036;-69
2020/12/09 08:05:37;;;;;;;40.08;20.05;;;4.10;82.70;;;;;;5057147;28;20097;-70
2020/12/09 08:08:12;;;;;;;35.83;17.95;;;4.10;82.60;;;;;;5063777;28;20033;-70
2020/12/09 08:10:38;;;;;;;39.92;18.65;;;4.10;83.40;;;;;;5051101;28;20025;-70
2020/12/09 08:13:20;;;;;;;42.25;19.98;;;4.20;82.50;;;;;;5057525;28;20103;-70
2020/12/09 08:16:08;;;;;;;38.85;19.85;;;4.20;82.50;;;;;;5057280;28;20110;-70
2020/12/09 08:18:34;;;;;;;40.22;20.13;;;4.20;82.30;;;;;;5061910;28;20036;-70
2020/12/09 08:21:00;;;;;;;42.65;20.23;;;4.30;82.20;;;;;;5057908;28;20441;-70
2020/12/09 08:23:42;;;;;;;47.35;21.25;;;4.20;82.10;;;;;;5059577;28;20033;-71
2020/12/09 08:26:10;;;;;;;46.90;22.35;;;4.30;82.20;;;;;;5053038;28;20117;-70
2020/12/09 08:28:36;;;;;;;49.67;23.77;;;4.30;82.10;;;;;;5059355;28;20056;-70
2020/12/09 08:31:13;;;;;;;49.50;23.15;;;4.30;82.10;;;;;;5043077;28;20534;-71
2020/12/09 08:33:39;;;;;;;52.67;23.88;;;4.30;82.10;;;;;;5053598;28;20116;-71
2020/12/09 08:36:10;;;;;;;44.58;23.08;;;4.30;82.10;;;;;;5066582;28;20127;-70
2020/12/09 08:38:41;;;;;;;48.38;23.05;;;4.30;82.10;;;;;;5054247;28;20706;-70
2020/12/09 08:41:09;;;;;;;45.88;21.92;;;4.30;82.00;;;;;;5065686;28;20033;-71
2020/12/09 08:43:37;;;;;;;47.10;22.75;;;4.30;82.00;;;;;;5068965;28;20317;-70
2020/12/09 08:46:05;;;;;;;46.13;23.33;;;4.30;82.00;;;;;;5067395;28;20033;-70
2020/12/09 08:48:35;;;;;;;52.42;23.90;;;4.30;82.10;;;;;;5070809;28;20029;-70
2020/12/09 08:51:01;;;;;;;47.88;22.65;;;4.20;82.10;;;;;;5063416;28;20106;-70
2020/12/09 08:53:27;;;;;;;51.40;24.02;;;4.30;82.10;;;;;;5062871;28;20059;-71
2020/12/09 08:55:53;;;;;;;46.03;22.15;;;4.30;82.10;;;;;;5056580;28;20037;-71
2020/12/09 08:58:19;;;;;;;42.63;22.35;;;4.30;82.20;;;;;;5049610;28;20035;-70
2020/12/09 09:00:48;;;;;;;49.70;22.20;;;4.30;82.30;;;;;;5057817;28;20040;-70
2020/12/09 09:03:20;;;;;;;45.83;22.02;;;4.40;82.30;;;;;;5046666;28;20029;-70
2020/12/09 09:05:53;;;;;;;42.60;20.55;;;4.40;82.30;;;;;;5059572;28;20074;-69
2020/12/09 09:08:19;;;;;;;60.60;27.45;;;4.40;82.20;;;;;;5062273;28;20029;-70
2020/12/09 09:10:45;;;;;;;50.05;22.95;;;4.40;82.20;;;;;;5062516;28;20123;-71
2020/12/09 09:13:11;;;;;;;44.58;22.13;;;4.40;82.10;;;;;;5039569;28;20094;-71
2020/12/09 09:15:38;;;;;;;46.65;23.35;;;4.40;82.10;;;;;;5064908;28;20043;-71
2020/12/09 09:18:05;;;;;;;42.40;21.60;;;4.40;82.10;;;;;;5059580;28;20503;-70
2020/12/09 09:20:32;;;;;;;43.05;21.60;;;4.50;82.10;;;;;;5070050;28;20511;-71
2020/12/09 09:22:58;;;;;;;41.33;21.08;;;4.50;82.00;;;;;;5067556;28;20033;-71
2020/12/09 09:25:24;;;;;;;47.33;21.67;;;4.50;82.00;;;;;;5061553;28;20048;-70
2020/12/09 09:27:51;;;;;;;53.58;24.65;;;4.50;82.10;;;;;;5063517;28;21556;-70
2020/12/09 09:30:18;;;;;;;53.78;24.85;;;4.50;82.00;;;;;;5045297;28;20032;-71
2020/12/09 09:32:44;;;;;;;50.75;24.35;;;4.50;81.80;;;;;;5062201;28;20037;-70
2020/12/09 09:35:10;;;;;;;48.10;23.75;;;4.50;81.80;;;;;;5043338;28;20059;-70
2020/12/09 09:37:36;;;;;;;41.28;20.40;;;4.50;81.80;;;;;;5059016;28;20056;-71
2020/12/09 09:40:04;;;;;;;41.85;20.25;;;4.50;81.80;;;;;;5065647;28;20036;-71
2020/12/09 09:42:30;;;;;;;35.30;18.38;;;4.50;81.80;;;;;;5063239;28;20108;-70
2020/12/09 09:44:56;;;;;;;34.20;18.23;;;4.50;81.90;;;;;;5061184;28;20119;-71
2020/12/09 09:47:21;;;;;;;31.20;16.77;;;4.50;81.80;;;;;;5060901;28;20033;-71
2020/12/09 09:49:47;;;;;;;33.55;17.73;;;4.50;81.80;;;;;;5065081;28;20504;-71
2020/12/09 09:52:13;;;;;;;36.25;18.17;;;4.50;81.80;;;;;;5045191;28;20037;-71
2020/12/09 09:54:39;;;;;;;37.00;19.25;;;4.40;81.80;;;;;;5065357;28;20029;-70
2020/12/09 09:57:05;;;;;;;37.35;18.23;;;4.40;81.80;;;;;;5058243;28;20044;-70
2020/12/09 09:59:31;;;;;;;40.47;19.10;;;4.40;81.80;;;;;;5061872;28;20033;-69
2020/12/09 10:01:57;;;;;;;42.60;18.42;;;4.40;81.80;;;;;;5064308;28;20027;-70
2020/12/09 10:04:25;;;;;;;36.80;18.00;;;4.50;81.90;;;;;;5039094;28;20029;-71
2020/12/09 10:06:51;;;;;;;42.30;19.48;;;4.50;81.90;;;;;;5054458;28;20033;-70
2020/12/09 10:09:18;;;;;;;35.72;17.25;;;4.50;82.00;;;;;;5063078;28;20103;-71
2020/12/09 10:11:44;;;;;;;43.85;18.75;;;4.50;82.00;;;;;;5061157;28;20025;-70
2020/12/09 10:14:10;;;;;;;38.40;18.85;;;4.50;82.00;;;;;;5061036;28;20404;-70
2020/12/09 10:16:39;;;;;;;38.85;20.13;;;4.50;81.90;;;;;;5056197;28;20032;-70
2020/12/09 10:19:04;;;;;;;35.35;18.95;;;4.50;81.80;;;;;;5061631;28;20044;-70
2020/12/09 10:21:33;;;;;;;37.45;18.48;;;4.50;81.80;;;;;;5069999;28;20068;-69
2020/12/09 10:24:00;;;;;;;44.42;19.65;;;4.50;81.70;;;;;;5065764;28;20090;-70
2020/12/09 10:26:36;;;;;;;43.83;17.55;;;4.50;81.80;;;;;;5063285;28;20036;-70
2020/12/09 10:29:07;;;;;;;50.53;20.13;;;4.50;81.80;;;;;;5040594;28;20036;-68
2020/12/09 10:31:44;;;;;;;45.83;18.40;;;4.50;82.00;;;;;;5061098;28;20051;-70
2020/12/09 10:34:13;;;;;;;40.90;17.25;;;4.60;82.00;;;;;;5054154;28;20702;-70
2020/12/09 10:36:42;;;;;;;38.40;17.33;;;4.60;81.90;;;;;;5061715;28;20036;-70
2020/12/09 10:39:09;;;;;;;37.70;16.05;;;4.60;81.80;;;;;;5058787;28;20116;-70
2020/12/09 10:41:35;;;;;;;37.85;17.25;;;4.60;81.60;;;;;;5045801;28;20017;-68
2020/12/09 10:44:01;;;;;;;35.28;16.75;;;4.60;81.60;;;;;;5054814;28;20593;-68
2020/12/09 10:46:32;;;;;;;33.70;17.05;;;4.60;81.60;;;;;;5063536;28;20033;-68
2020/12/09 10:48:59;;;;;;;37.90;18.08;;;4.60;81.40;;;;;;5069213;28;20515;-68
2020/12/09 10:51:26;;;;;;;34.15;17.05;;;4.70;81.40;;;;;;5043072;28;20396;-68
2020/12/09 10:53:52;;;;;;;34.67;17.33;;;4.60;81.40;;;;;;5058669;28;20404;-68
2020/12/09 10:56:28;;;;;;;35.75;18.13;;;4.60;81.40;;;;;;5065877;28;20029;-67
2020/12/09 10:58:58;;;;;;;29.85;16.63;;;4.60;81.20;;;;;;5060979;28;20048;-69
2020/12/09 11:01:25;;;;;;;35.53;18.40;;;4.60;81.20;;;;;;5057668;28;20027;-68
2020/12/09 11:03:55;;;;;;;33.45;17.38;;;4.60;81.30;;;;;;5051807;28;20056;-68
2020/12/09 11:06:32;;;;;;;34.55;16.98;;;4.60;81.20;;;;;;5054591;28;20055;-68
2020/12/09 11:08:58;;;;;;;30.30;16.17;;;4.60;81.20;;;;;;5047570;28;20100;-68
2020/12/09 11:11:25;;;;;;;32.60;16.42;;;4.60;81.30;;;;;;5056577;28;20037;-68
2020/12/09 11:13:51;;;;;;;29.15;15.55;;;4.50;81.30;;;;;;5057444;28;20526;-68
2020/12/09 11:16:17;;;;;;;29.52;15.98;;;4.50;81.40;;;;;;5051646;28;20037;-68
2020/12/09 11:18:43;;;;;;;30.95;16.58;;;4.50;81.60;;;;;;5062397;28;20037;-69
2020/12/09 11:21:10;;;;;;;30.63;16.58;;;4.50;82.50;;;;;;5045824;28;20069;-68
2020/12/09 11:23:36;;;;;;;31.15;15.30;;;4.50;81.70;;;;;;5059148;28;20523;-68
2020/12/09 11:26:06;;;;;;;31.02;15.77;;;4.50;81.80;;;;;;5062305;28;20539;-68
2020/12/09 11:28:32;;;;;;;27.40;14.38;;;4.50;82.00;;;;;;5065840;28;20060;-68
2020/12/09 11:30:57;;;;;;;29.42;14.57;;;4.50;81.80;;;;;;5063336;28;20068;-68
2020/12/09 11:33:23;;;;;;;29.17;14.48;;;4.50;81.70;;;;;;5062118;28;20025;-68
2020/12/09 11:35:48;;;;;;;29.63;14.75;;;4.50;81.60;;;;;;5069318;28;20033;-68
2020/12/09 11:38:14;;;;;;;26.88;14.35;;;4.50;81.70;;;;;;5043911;28;20070;-68
2020/12/09 11:40:40;;;;;;;27.95;13.60;;;4.50;81.60;;;;;;5064017;28;20569;-68
2020/12/09 11:43:05;;;;;;;25.52;13.77;;;4.50;81.60;;;;;;5055411;28;20116;-68
2020/12/09 11:45:31;;;;;;;27.23;13.85;;;4.50;81.60;;;;;;5062185;28;20492;-68
2020/12/09 11:47:57;;;;;;;26.50;13.50;;;4.50;81.60;;;;;;5063968;28;20037;-68
2020/12/09 11:50:23;;;;;;;26.58;14.07;;;4.50;81.60;;;;;;5056648;28;20029;-68
2020/12/09 11:52:49;;;;;;;25.40;14.02;;;4.50;81.70;;;;;;5067446;28;20385;-68
2020/12/09 11:55:15;;;;;;;27.90;13.63;;;4.50;81.70;;;;;;5062586;28;20487;-68
2020/12/09 11:57:40;;;;;;;22.67;13.18;;;4.50;81.70;;;;;;5059646;28;20032;-69
2020/12/09 12:00:06;;;;;;;25.83;13.43;;;4.50;81.70;;;;;;5062934;28;20059;-68
2020/12/09 12:02:32;;;;;;;27.25;13.63;;;4.40;81.60;;;;;;5045621;28;20033;-68
2020/12/09 12:04:59;;;;;;;26.92;13.23;;;4.50;81.70;;;;;;5060324;28;20518;-68
2020/12/09 12:07:25;;;;;;;22.48;12.98;;;4.50;81.80;;;;;;5060931;28;20060;-68
2020/12/09 12:09:51;;;;;;;23.50;12.35;;;4.50;81.90;;;;;;5068170;28;20048;-68
2020/12/09 12:12:16;;;;;;;26.38;12.82;;;4.50;82.00;;;;;;5059798;28;20486;-67
2020/12/09 12:14:43;;;;;;;27.42;13.23;;;4.50;82.00;;;;;;5052434;28;20044;-68
2020/12/09 12:17:10;;;;;;;24.85;13.15;;;4.50;82.00;;;;;;5066324;28;20033;-67
2020/12/09 12:19:36;;;;;;;25.90;14.18;;;4.50;82.00;;;;;;5063578;28;20036;-68
2020/12/09 12:22:06;;;;;;;27.58;13.75;;;4.50;82.00;;;;;;5065633;28;20033;-68
2020/12/09 12:24:33;;;;;;;27.58;14.10;;;4.50;82.00;;;;;;5063711;28;20063;-68
2020/12/09 12:26:59;;;;;;;23.63;13.63;;;4.50;82.10;;;;;;5063708;28;20041;-68
2020/12/09 12:29:25;;;;;;;24.75;13.80;;;4.50;82.00;;;;;;5064618;28;20436;-68
2020/12/09 12:31:51;;;;;;;34.13;18.80;;;4.50;82.00;;;;;;5049662;28;20029;-69
2020/12/09 12:34:16;;;;;;;23.05;12.65;;;4.50;82.00;;;;;;5057590;28;20175;-68
2020/12/09 12:36:42;;;;;;;22.85;13.15;;;4.50;82.10;;;;;;5063321;28;20033;-69
2020/12/09 12:39:08;;;;;;;24.30;12.82;;;4.50;82.00;;;;;;5065894;28;20043;-69